createdAt,value
2018-12-26T00:00:22.572Z,19.40
2018-12-26T00:03:03.724Z,18.73
2018-12-26T00:05:45.738Z,17.63
2018-12-26T00:08:26.992Z,17.70
2018-12-26T00:11:08.488Z,19.60
2018-12-26T00:13:49.897Z,18.40
2018-12-26T00:16:31.188Z,16.47
2018-12-26T00:19:12.397Z,17.90
2018-12-26T00:21:54.368Z,18.00
2018-12-26T00:24:36.123Z,17.73
2018-12-26T00:27:17.177Z,17.80
2018-12-26T00:29:58.388Z,19.33
2018-12-26T00:32:39.691Z,20.13
2018-12-26T00:35:21.368Z,17.27
2018-12-26T00:38:03.257Z,19.33
2018-12-26T00:40:45.111Z,18.27
2018-12-26T00:43:29.549Z,18.40
2018-12-26T00:46:10.640Z,17.27
2018-12-26T00:48:51.683Z,19.07
2018-12-26T00:51:33.164Z,20.47
2018-12-26T00:54:14.547Z,20.33
2018-12-26T00:56:55.932Z,18.20
2018-12-26T00:59:37.307Z,20.57
2018-12-26T01:02:18.670Z,19.50
2018-12-26T01:05:00.655Z,19.77
2018-12-26T01:11:20.460Z,19.10
2018-12-26T01:14:01.525Z,19.90
2018-12-26T01:16:42.886Z,20.40
2018-12-26T01:19:24.367Z,21.73
2018-12-26T01:22:05.992Z,20.03
2018-12-26T01:24:47.593Z,20.83
2018-12-26T01:27:29.076Z,21.17
2018-12-26T01:30:10.351Z,22.50
2018-12-26T01:32:51.724Z,19.87
2018-12-26T01:35:33.105Z,21.43
2018-12-26T01:38:14.400Z,21.50
2018-12-26T01:40:55.841Z,20.30
2018-12-26T01:43:36.922Z,21.10
2018-12-26T01:46:18.144Z,20.03
2018-12-26T01:48:59.400Z,21.07
2018-12-26T01:51:40.436Z,20.80
2018-12-26T01:54:22.407Z,21.87
2018-12-26T02:00:43.345Z,22.83
2018-12-26T02:03:25.219Z,21.07
2018-12-26T02:06:07.108Z,22.20
2018-12-26T02:08:48.138Z,22.53
2018-12-26T02:11:29.268Z,22.73
2018-12-26T02:14:10.637Z,21.33
2018-12-26T02:16:51.724Z,20.90
2018-12-26T02:19:32.950Z,23.30
2018-12-26T02:25:54.173Z,22.90
2018-12-26T02:28:35.243Z,22.90
2018-12-26T02:31:17.196Z,23.87
2018-12-26T02:33:58.569Z,23.30
2018-12-26T02:36:39.775Z,24.07
2018-12-26T02:39:21.073Z,23.87
2018-12-26T02:42:02.590Z,23.87
2018-12-26T02:44:44.539Z,22.23
2018-12-26T02:47:25.771Z,21.87
2018-12-26T02:50:07.674Z,22.90
2018-12-26T02:52:48.764Z,22.83
2018-12-26T02:55:30.479Z,22.70
2018-12-26T02:58:11.899Z,22.80
2018-12-26T03:00:53.453Z,21.10
2018-12-26T03:03:34.530Z,23.20
2018-12-26T03:06:15.769Z,22.20
2018-12-26T03:08:57.801Z,22.23
2018-12-26T03:11:39.110Z,25.03
2018-12-26T03:14:20.619Z,24.00
2018-12-26T03:17:02.188Z,21.97
2018-12-26T03:19:43.295Z,23.00
2018-12-26T03:22:24.419Z,23.47
2018-12-26T03:25:05.485Z,23.30
2018-12-26T03:27:47.082Z,24.00
2018-12-26T03:30:28.246Z,22.53
2018-12-26T03:33:10.248Z,25.07
2018-12-26T03:35:51.494Z,24.60
2018-12-26T03:38:33.211Z,22.80
2018-12-26T03:41:14.575Z,24.60
2018-12-26T03:43:56.073Z,23.03
2018-12-26T03:46:37.916Z,22.47
2018-12-26T03:49:19.075Z,24.90
2018-12-26T03:52:02.168Z,25.27
2018-12-26T03:54:43.349Z,25.40
2018-12-26T03:57:24.465Z,23.17
2018-12-26T04:00:05.844Z,24.37
2018-12-26T04:02:47.095Z,24.97
2018-12-26T04:05:28.447Z,24.63
2018-12-26T04:08:09.672Z,25.37
2018-12-26T04:10:50.999Z,23.70
2018-12-26T04:13:32.876Z,22.70
2018-12-26T04:16:14.127Z,22.77
2018-12-26T04:18:55.997Z,22.10
2018-12-26T04:21:37.771Z,24.53
2018-12-26T04:24:18.809Z,24.30
2018-12-26T04:26:59.848Z,24.40
2018-12-26T04:29:41.740Z,26.40
2018-12-26T04:32:23.481Z,26.13
2018-12-26T04:35:04.697Z,25.60
2018-12-26T04:37:46.085Z,24.20
2018-12-26T04:40:27.520Z,26.50
2018-12-26T04:43:08.833Z,25.87
2018-12-26T04:45:50.116Z,26.67
2018-12-26T04:48:31.123Z,24.90
2018-12-26T04:54:38.060Z,25.80
2018-12-26T04:57:24.630Z,25.77
2018-12-26T05:00:02.804Z,25.50
2018-12-26T05:02:44.467Z,25.90
2018-12-26T05:05:26.427Z,26.33
2018-12-26T05:08:07.426Z,24.03
2018-12-26T05:10:48.564Z,26.07
2018-12-26T05:13:29.628Z,25.23
2018-12-26T05:16:11.576Z,26.90
2018-12-26T05:18:53.521Z,25.87
2018-12-26T05:21:34.580Z,26.40
2018-12-26T05:24:15.640Z,25.00
2018-12-26T05:26:56.920Z,24.60
2018-12-26T05:29:38.156Z,26.07
2018-12-26T05:32:19.557Z,26.27
2018-12-26T05:35:00.844Z,25.20
2018-12-26T05:37:41.904Z,24.30
2018-12-26T05:40:23.699Z,27.07
2018-12-26T05:43:04.749Z,23.83
2018-12-26T05:45:45.992Z,25.70
2018-12-26T05:48:27.138Z,27.60
2018-12-26T05:51:08.916Z,25.00
2018-12-26T05:53:50.605Z,24.77
2018-12-26T05:56:31.985Z,25.47
2018-12-26T05:59:16.631Z,25.20
2018-12-26T06:01:58.428Z,24.97
2018-12-26T06:04:39.866Z,25.63
2018-12-26T06:07:20.850Z,25.63
2018-12-26T06:10:02.315Z,24.87
2018-12-26T06:12:43.694Z,23.47
2018-12-26T06:15:24.816Z,25.50
2018-12-26T06:18:06.057Z,24.83
2018-12-26T06:20:50.680Z,26.40
2018-12-26T06:23:32.179Z,22.63
2018-12-26T06:26:13.616Z,23.03
2018-12-26T06:28:55.026Z,23.53
2018-12-26T06:31:36.179Z,23.37
2018-12-26T06:34:17.229Z,24.13
2018-12-26T06:36:58.648Z,24.17
2018-12-26T06:39:39.765Z,25.07
2018-12-26T06:42:21.335Z,24.13
2018-12-26T06:45:02.868Z,24.37
2018-12-26T06:47:44.523Z,24.00
2018-12-26T06:50:26.251Z,23.37
2018-12-26T06:53:07.232Z,23.40
2018-12-26T06:55:48.674Z,23.07
2018-12-26T06:58:29.951Z,24.30
2018-12-26T07:04:49.531Z,24.17
2018-12-26T07:07:30.627Z,23.83
2018-12-26T07:10:11.681Z,24.63
2018-12-26T07:12:53.276Z,22.33
2018-12-26T07:15:34.757Z,23.33
2018-12-26T07:18:16.724Z,23.50
2018-12-26T07:20:58.169Z,24.67
2018-12-26T07:23:39.203Z,24.60
2018-12-26T07:26:20.724Z,23.87
2018-12-26T07:29:02.313Z,24.27
2018-12-26T07:31:43.878Z,24.90
2018-12-26T07:34:25.047Z,23.37
2018-12-26T07:37:06.587Z,22.97
2018-12-26T07:39:47.727Z,25.17
2018-12-26T07:42:29.096Z,21.33
2018-12-26T07:45:10.684Z,23.13
2018-12-26T07:51:31.355Z,24.57
2018-12-26T08:01:03.008Z,23.50
2018-12-26T08:03:44.703Z,23.00
2018-12-26T08:09:32.251Z,22.87
2018-12-26T08:15:19.639Z,23.77
2018-12-26T08:18:01.300Z,22.87
2018-12-26T08:20:42.507Z,23.80
2018-12-26T08:23:23.842Z,23.00
2018-12-26T08:26:04.888Z,25.77
2018-12-26T08:28:46.520Z,21.43
2018-12-26T08:34:53.041Z,23.60
2018-12-26T08:44:01.550Z,21.80
2018-12-26T08:50:21.192Z,22.13
2018-12-26T08:53:02.910Z,22.30
2018-12-26T08:58:49.805Z,22.63
2018-12-26T09:01:31.247Z,23.00
2018-12-26T09:04:12.409Z,23.80
2018-12-26T09:06:53.728Z,21.47
2018-12-26T09:13:00.735Z,20.93
2018-12-26T09:19:02.091Z,23.60
2018-12-26T09:21:43.564Z,23.77
2018-12-26T09:24:24.916Z,22.83
2018-12-26T09:29:49.187Z,22.60
2018-12-26T09:36:09.942Z,21.13
2018-12-26T09:38:51.488Z,22.20
2018-12-26T09:41:32.882Z,24.90
2018-12-26T09:44:33.567Z,28.42
2018-12-26T09:47:15.165Z,24.43
2018-12-26T09:55:47.909Z,23.60
2018-12-26T09:58:29.687Z,22.73
2018-12-26T10:01:30.289Z,22.27
2018-12-26T10:04:12.098Z,23.03
2018-12-26T10:06:53.652Z,22.70
2018-12-26T10:12:58.037Z,20.97
2018-12-26T10:15:58.427Z,24.87
2018-12-26T10:18:59.550Z,22.87
2018-12-26T10:21:41.323Z,22.30
2018-12-26T10:24:23.120Z,22.27
2018-12-26T10:27:07.833Z,22.20
2018-12-26T10:40:27.528Z,20.50
2018-12-26T10:43:09.436Z,19.33
2018-12-26T10:46:09.907Z,22.07
2018-12-26T10:48:51.537Z,21.77
2018-12-26T10:51:33.391Z,18.83
2018-12-26T10:54:14.659Z,19.00
2018-12-26T10:56:55.799Z,19.77
2018-12-26T10:59:37.080Z,18.60
2018-12-26T11:02:18.874Z,18.87
2018-12-26T11:05:00.440Z,19.93
2018-12-26T11:10:47.267Z,19.93
2018-12-26T11:13:28.373Z,20.87
2018-12-26T11:16:09.467Z,20.77
2018-12-26T11:19:10.130Z,20.43
2018-12-26T11:21:51.987Z,20.80
2018-12-26T11:24:33.388Z,20.60
2018-12-26T11:30:17.161Z,20.03
2018-12-26T11:32:58.252Z,19.17
2018-12-26T11:35:42.616Z,19.53
2018-12-26T11:38:24.476Z,20.77
2018-12-26T11:44:14.900Z,19.07
2018-12-26T11:52:45.134Z,18.47
2018-12-26T11:55:26.543Z,18.20
2018-12-26T11:58:08.083Z,20.10
2018-12-26T12:00:49.479Z,17.60
2018-12-26T12:13:54.002Z,18.83
2018-12-26T12:19:59.446Z,19.77
2018-12-26T12:29:35.813Z,18.10
2018-12-26T12:35:39.210Z,18.07
2018-12-26T12:38:21.313Z,19.80
2018-12-26T12:44:39.898Z,17.67
2018-12-26T12:50:57.495Z,17.33
2018-12-26T13:03:47.615Z,16.83
2018-12-26T13:06:32.621Z,16.57
2018-12-26T13:09:14.417Z,18.00
2018-12-26T13:11:56.117Z,17.80
2018-12-26T13:17:58.718Z,17.20
2018-12-26T13:20:40.159Z,17.80
2018-12-26T13:23:40.563Z,15.57
2018-12-26T13:29:44.539Z,15.00
2018-12-26T13:35:35.818Z,16.60
2018-12-26T13:38:36.148Z,14.90
2018-12-26T13:41:17.800Z,15.60
2018-12-26T13:43:59.683Z,15.60
2018-12-26T13:50:01.036Z,14.67
2018-12-26T13:52:42.151Z,15.77
2018-12-26T13:55:25.286Z,15.70
2018-12-26T13:58:07.132Z,14.80
2018-12-26T14:00:49.157Z,15.37
2018-12-26T14:03:31.069Z,13.70
2018-12-26T14:06:12.791Z,13.20
2018-12-26T14:08:53.949Z,14.27
2018-12-26T14:11:54.960Z,14.07
2018-12-26T14:18:00.549Z,15.37
2018-12-26T14:21:01.056Z,14.80
2018-12-26T14:27:09.052Z,14.00
2018-12-26T14:36:39.136Z,14.57
2018-12-26T14:42:42.949Z,15.30
2018-12-26T14:45:43.892Z,15.80
2018-12-26T14:51:48.894Z,15.10
2018-12-26T14:54:30.632Z,16.20
2018-12-26T14:57:12.185Z,15.37
2018-12-26T14:59:54.976Z,15.00
2018-12-26T15:02:55.870Z,13.37
2018-12-26T15:06:00.333Z,15.83
2018-12-26T15:11:25.765Z,15.60
2018-12-26T15:14:26.005Z,14.87
2018-12-26T15:20:32.730Z,15.50
2018-12-26T15:23:14.595Z,15.20
2018-12-26T15:25:56.564Z,14.70
2018-12-26T15:32:21.117Z,16.27
2018-12-26T15:35:03.545Z,15.60
2018-12-26T15:37:44.942Z,15.73
2018-12-26T15:44:05.581Z,15.80
2018-12-26T15:46:46.687Z,16.03
2018-12-26T15:49:27.681Z,15.93
2018-12-26T15:52:09.035Z,16.20
2018-12-26T16:01:36.890Z,15.57
2018-12-26T16:04:18.248Z,15.93
2018-12-26T16:06:59.509Z,16.30
2018-12-26T16:09:41.470Z,16.20
2018-12-26T16:12:22.543Z,16.50
2018-12-26T16:15:04.351Z,16.13
2018-12-26T16:17:45.389Z,16.20
2018-12-26T16:20:26.491Z,16.50
2018-12-26T16:23:10.922Z,15.33
2018-12-26T16:25:52.926Z,14.77
2018-12-26T16:28:34.344Z,14.80
2018-12-26T16:31:15.944Z,16.50
2018-12-26T16:33:57.499Z,16.13
2018-12-26T16:36:39.046Z,15.37
2018-12-26T16:39:20.421Z,14.30
2018-12-26T16:44:45.024Z,14.57
2018-12-26T16:47:26.515Z,16.63
2018-12-26T16:50:08.387Z,16.40
2018-12-26T16:52:50.143Z,15.97
2018-12-26T16:55:31.410Z,16.23
2018-12-26T16:58:12.627Z,14.47
2018-12-26T17:00:55.207Z,14.70
2018-12-26T17:03:36.630Z,15.90
2018-12-26T17:06:17.822Z,14.97
2018-12-26T17:08:59.478Z,15.20
2018-12-26T17:11:40.589Z,15.23
2018-12-26T17:14:22.264Z,15.10
2018-12-26T17:17:03.387Z,16.10
2018-12-26T17:19:44.476Z,15.50
2018-12-26T17:22:28.972Z,20.30
2018-12-26T17:25:10.621Z,14.97
2018-12-26T17:27:52.059Z,14.73
2018-12-26T17:30:33.149Z,15.17
2018-12-26T17:33:14.463Z,16.33
2018-12-26T17:35:56.100Z,14.67
2018-12-26T17:38:37.704Z,16.50
2018-12-26T17:41:18.751Z,16.67
2018-12-26T17:44:00.297Z,14.60
2018-12-26T17:46:41.997Z,15.23
2018-12-26T17:49:23.904Z,16.07
2018-12-26T17:52:05.921Z,19.87
2018-12-26T17:54:47.008Z,27.23
2018-12-26T17:57:28.900Z,25.17
2018-12-26T18:00:10.395Z,20.93
2018-12-26T18:02:52.187Z,16.60
2018-12-26T18:05:33.483Z,16.63
2018-12-26T18:08:14.988Z,15.60
2018-12-26T18:10:56.947Z,15.80
2018-12-26T18:13:38.520Z,14.77
2018-12-26T18:16:19.808Z,25.77
2018-12-26T18:19:01.163Z,15.80
2018-12-26T18:21:45.636Z,15.07
2018-12-26T18:24:27.423Z,15.80
2018-12-26T18:27:08.696Z,15.63
2018-12-26T18:29:50.149Z,15.20
2018-12-26T18:32:31.568Z,15.93
2018-12-26T18:35:12.848Z,14.97
2018-12-26T18:37:54.018Z,16.37
2018-12-26T18:40:35.609Z,14.20
2018-12-26T18:43:16.987Z,15.97
2018-12-26T18:45:58.218Z,15.13
2018-12-26T18:48:40.219Z,14.87
2018-12-26T18:51:22.120Z,15.40
2018-12-26T18:54:04.050Z,15.47
2018-12-26T18:56:46.054Z,14.93
2018-12-26T18:59:28.022Z,14.57
2018-12-26T19:02:10.064Z,15.77
2018-12-26T19:04:51.987Z,14.80
2018-12-26T19:07:33.267Z,14.97
2018-12-26T19:10:16.884Z,13.90
2018-12-26T19:13:02.007Z,14.00
2018-12-26T19:15:43.353Z,14.97
2018-12-26T19:18:24.652Z,13.57
2018-12-26T19:24:44.599Z,13.37
2018-12-26T19:27:26.639Z,13.43
2018-12-26T19:30:08.399Z,14.50
2018-12-26T19:32:50.316Z,14.03
2018-12-26T19:35:31.427Z,13.60
2018-12-26T19:38:12.900Z,15.10
2018-12-26T19:40:54.183Z,15.40
2018-12-26T19:43:35.896Z,15.67
2018-12-26T19:46:16.925Z,16.83
2018-12-26T19:48:58.285Z,15.47
2018-12-26T19:51:40.235Z,15.27
2018-12-26T19:54:21.443Z,14.53
2018-12-26T19:57:03.300Z,15.00
2018-12-26T19:59:45.166Z,15.77
2018-12-26T20:02:26.679Z,14.13
2018-12-26T20:05:07.781Z,13.97
2018-12-26T20:07:48.906Z,15.47
2018-12-26T20:10:29.963Z,15.20
2018-12-26T20:13:11.486Z,15.13
2018-12-26T20:15:52.659Z,15.10
2018-12-26T20:18:34.458Z,14.83
2018-12-26T20:21:15.508Z,16.00
2018-12-26T20:23:57.200Z,15.60
2018-12-26T20:26:38.411Z,16.30
2018-12-26T20:29:19.692Z,32.87
2018-12-26T20:32:00.909Z,19.07
2018-12-26T20:34:42.149Z,16.57
2018-12-26T20:37:23.708Z,15.70
2018-12-26T20:40:04.967Z,16.30
2018-12-26T20:42:46.301Z,17.23
2018-12-26T20:45:27.585Z,16.60
2018-12-26T20:48:08.785Z,16.00
2018-12-26T20:50:50.316Z,15.30
2018-12-26T20:53:31.730Z,15.70
2018-12-26T20:56:13.018Z,15.00
2018-12-26T20:58:54.251Z,14.80
2018-12-26T21:01:35.649Z,16.03
2018-12-26T21:04:17.235Z,14.53
2018-12-26T21:06:59.248Z,16.20
2018-12-26T21:09:41.215Z,16.10
2018-12-26T21:12:22.634Z,15.80
2018-12-26T21:15:04.188Z,15.40
2018-12-26T21:17:45.867Z,15.83
2018-12-26T21:20:27.329Z,17.20
2018-12-26T21:23:08.692Z,16.00
2018-12-26T21:25:49.896Z,17.07
2018-12-26T21:28:31.766Z,16.40
2018-12-26T21:31:13.712Z,15.90
2018-12-26T21:33:54.798Z,15.00
2018-12-26T21:36:36.129Z,15.60
2018-12-26T21:39:17.173Z,14.73
2018-12-26T21:41:58.448Z,14.67
2018-12-26T21:44:39.898Z,15.20
2018-12-26T21:47:20.943Z,14.13
2018-12-26T21:50:02.300Z,14.63
2018-12-26T21:52:44.367Z,14.10
2018-12-26T21:55:25.423Z,14.10
2018-12-26T21:58:06.849Z,13.60
2018-12-26T22:00:48.730Z,15.30
2018-12-26T22:03:29.728Z,15.00
2018-12-26T22:06:10.929Z,13.80
2018-12-26T22:08:52.293Z,14.63
2018-12-26T22:11:33.724Z,14.03
2018-12-26T22:14:14.822Z,14.80
2018-12-26T22:16:56.227Z,13.37
2018-12-26T22:19:37.509Z,14.30
2018-12-26T22:22:19.372Z,15.30
2018-12-26T22:25:00.656Z,14.73
2018-12-26T22:27:42.128Z,14.93
2018-12-26T22:30:24.048Z,17.20
2018-12-26T22:33:05.351Z,15.70
2018-12-26T22:35:46.734Z,16.40
2018-12-26T22:38:28.014Z,17.20
2018-12-26T22:41:09.856Z,15.17
2018-12-26T22:43:50.984Z,15.30
2018-12-26T22:46:32.217Z,15.33
2018-12-26T22:49:13.356Z,16.37
2018-12-26T22:51:55.288Z,16.60
2018-12-26T22:54:36.264Z,17.67
2018-12-26T22:57:17.670Z,17.90
2018-12-26T23:00:02.127Z,16.57
2018-12-26T23:02:44.162Z,16.80
2018-12-26T23:05:25.188Z,17.60
2018-12-26T23:08:06.444Z,16.90
2018-12-26T23:10:47.995Z,18.57
2018-12-26T23:13:29.832Z,17.20
2018-12-26T23:16:11.189Z,17.43
2018-12-26T23:18:52.201Z,17.10
2018-12-26T23:21:33.527Z,17.73
2018-12-26T23:24:15.468Z,15.67
2018-12-26T23:26:56.509Z,14.70
2018-12-26T23:29:38.511Z,15.90
2018-12-26T23:32:20.207Z,17.20
2018-12-26T23:35:02.043Z,16.17
2018-12-26T23:37:43.408Z,17.07
2018-12-26T23:40:25.463Z,15.80
2018-12-26T23:43:07.391Z,14.70
2018-12-26T23:45:48.804Z,14.80
2018-12-26T23:48:30.468Z,15.57
2018-12-26T23:51:11.573Z,16.03
2018-12-26T23:53:52.930Z,15.83
2018-12-26T23:56:34.055Z,16.13
2018-12-26T23:59:15.345Z,16.10
